sensor_id;sensor_type;location;lat;lon;timestamp;P1;durP1;ratioP1;P2;durP2;ratioP2
22606;SDS011;11470;20.968;105.834;2024-03-06T00:04:31;165.43;;;103.72;;
22606;SDS011;11470;20.968;105.834;2024-03-06T00:09:36;146.63;;;95.50;;
22606;SDS011;11470;20.968;105.834;2024-03-06T00:14:41;181.05;;;112.60;;
22606;SDS011;11470;20.968;105.834;2024-03-06T00:19:46;191.90;;;118.53;;
22606;SDS011;11470;20.968;105.834;2024-03-06T00:24:51;165.13;;;107.32;;
22606;SDS011;11470;20.968;105.834;2024-03-06T00:29:56;222.90;;;137.10;;
22606;SDS011;11470;20.968;105.834;2024-03-06T00:35:01;225.82;;;130.65;;
22606;SDS011;11470;20.968;105.834;2024-03-06T00:40:07;204.75;;;122.22;;
22606;SDS011;11470;20.968;105.834;2024-03-06T00:45:13;147.33;;;92.67;;
22606;SDS011;11470;20.968;105.834;2024-03-06T00:50:17;153.60;;;99.75;;
22606;SDS011;11470;20.968;105.834;2024-03-06T00:55:25;157.90;;;97.63;;
22606;SDS011;11470;20.968;105.834;2024-03-06T01:00:30;134.88;;;85.63;;
22606;SDS011;11470;20.968;105.834;2024-03-06T01:05:35;160.55;;;104.15;;
22606;SDS011;11470;20.968;105.834;2024-03-06T01:10:41;136.07;;;84.85;;
22606;SDS011;11470;20.968;105.834;2024-03-06T01:15:46;146.02;;;89.75;;
22606;SDS011;11470;20.968;105.834;2024-03-06T01:20:51;102.75;;;58.55;;
22606;SDS011;11470;20.968;105.834;2024-03-06T01:25:56;204.75;;;109.40;;
22606;SDS011;11470;20.968;105.834;2024-03-06T01:31:01;320.20;;;184.85;;
22606;SDS011;11470;20.968;105.834;2024-03-06T01:36:06;164.65;;;88.38;;
22606;SDS011;11470;20.968;105.834;2024-03-06T01:41:11;173.40;;;101.40;;
22606;SDS011;11470;20.968;105.834;2024-03-06T01:46:16;139.48;;;75.60;;
22606;SDS011;11470;20.968;105.834;2024-03-06T01:51:21;183.73;;;103.70;;
22606;SDS011;11470;20.968;105.834;2024-03-06T01:56:27;164.75;;;93.97;;
22606;SDS011;11470;20.968;105.834;2024-03-06T02:01:32;214.07;;;126.23;;
22606;SDS011;11470;20.968;105.834;2024-03-06T02:06:41;190.70;;;104.93;;
22606;SDS011;11470;20.968;105.834;2024-03-06T02:11:46;193.80;;;110.57;;
22606;SDS011;11470;20.968;105.834;2024-03-06T02:16:51;177.93;;;108.07;;
22606;SDS011;11470;20.968;105.834;2024-03-06T02:21:56;184.93;;;107.82;;
22606;SDS011;11470;20.968;105.834;2024-03-06T02:27:01;205.85;;;123.57;;
22606;SDS011;11470;20.968;105.834;2024-03-06T02:32:08;178.07;;;105.03;;
22606;SDS011;11470;20.968;105.834;2024-03-06T02:37:16;128.15;;;70.00;;
22606;SDS011;11470;20.968;105.834;2024-03-06T02:42:21;170.95;;;102.22;;
22606;SDS011;11470;20.968;105.834;2024-03-06T02:47:26;151.52;;;96.65;;
22606;SDS011;11470;20.968;105.834;2024-03-06T02:52:31;150.13;;;93.05;;
22606;SDS011;11470;20.968;105.834;2024-03-06T02:57:37;118.20;;;73.73;;
22606;SDS011;11470;20.968;105.834;2024-03-06T03:02:42;118.70;;;69.77;;
22606;SDS011;11470;20.968;105.834;2024-03-06T03:07:47;115.17;;;73.57;;
22606;SDS011;11470;20.968;105.834;2024-03-06T03:12:52;105.63;;;60.25;;
22606;SDS011;11470;20.968;105.834;2024-03-06T03:17:58;94.82;;;54.85;;
22606;SDS011;11470;20.968;105.834;2024-03-06T03:23:04;108.30;;;67.90;;
22606;SDS011;11470;20.968;105.834;2024-03-06T03:28:15;133.48;;;76.88;;
22606;SDS011;11470;20.968;105.834;2024-03-06T03:33:20;90.97;;;49.63;;
22606;SDS011;11470;20.968;105.834;2024-03-06T03:38:25;104.80;;;61.90;;
22606;SDS011;11470;20.968;105.834;2024-03-06T03:43:31;96.10;;;53.40;;
22606;SDS011;11470;20.968;105.834;2024-03-06T03:48:44;103.18;;;58.28;;
22606;SDS011;11470;20.968;105.834;2024-03-06T03:53:50;100.17;;;64.23;;
22606;SDS011;11470;20.968;105.834;2024-03-06T03:58:56;113.63;;;72.90;;
22606;SDS011;11470;20.968;105.834;2024-03-06T04:04:02;122.00;;;75.50;;
22606;SDS011;11470;20.968;105.834;2024-03-06T04:09:07;116.43;;;68.47;;
22606;SDS011;11470;20.968;105.834;2024-03-06T04:14:15;101.85;;;62.95;;
22606;SDS011;11470;20.968;105.834;2024-03-06T04:19:20;106.77;;;66.40;;
22606;SDS011;11470;20.968;105.834;2024-03-06T04:24:25;97.63;;;57.53;;
22606;SDS011;11470;20.968;105.834;2024-03-06T04:29:30;102.15;;;64.25;;
22606;SDS011;11470;20.968;105.834;2024-03-06T04:34:35;98.95;;;61.92;;
22606;SDS011;11470;20.968;105.834;2024-03-06T04:39:40;85.95;;;53.60;;
22606;SDS011;11470;20.968;105.834;2024-03-06T04:44:45;97.65;;;60.38;;
22606;SDS011;11470;20.968;105.834;2024-03-06T04:49:50;97.45;;;61.47;;
22606;SDS011;11470;20.968;105.834;2024-03-06T04:54:55;115.93;;;66.97;;
22606;SDS011;11470;20.968;105.834;2024-03-06T05:00:00;81.47;;;52.20;;
22606;SDS011;11470;20.968;105.834;2024-03-06T05:05:09;105.72;;;65.07;;
22606;SDS011;11470;20.968;105.834;2024-03-06T05:10:31;91.03;;;56.13;;
22606;SDS011;11470;20.968;105.834;2024-03-06T05:15:52;89.15;;;60.03;;
22606;SDS011;11470;20.968;105.834;2024-03-06T05:21:14;84.63;;;51.47;;
22606;SDS011;11470;20.968;105.834;2024-03-06T05:26:35;101.63;;;64.03;;
22606;SDS011;11470;20.968;105.834;2024-03-06T05:31:56;98.38;;;60.28;;
22606;SDS011;11470;20.968;105.834;2024-03-06T05:37:19;78.32;;;47.88;;
22606;SDS011;11470;20.968;105.834;2024-03-06T05:42:40;71.75;;;46.80;;
22606;SDS011;11470;20.968;105.834;2024-03-06T05:48:02;75.82;;;45.80;;
22606;SDS011;11470;20.968;105.834;2024-03-06T05:53:24;80.78;;;50.17;;
22606;SDS011;11470;20.968;105.834;2024-03-06T05:58:46;74.50;;;45.17;;
22606;SDS011;11470;20.968;105.834;2024-03-06T06:03:52;75.20;;;46.47;;
22606;SDS011;11470;20.968;105.834;2024-03-06T06:08:57;77.65;;;47.00;;
22606;SDS011;11470;20.968;105.834;2024-03-06T06:14:02;78.07;;;46.67;;
22606;SDS011;11470;20.968;105.834;2024-03-06T06:19:07;73.72;;;43.20;;
22606;SDS011;11470;20.968;105.834;2024-03-06T06:24:12;72.73;;;40.60;;
22606;SDS011;11470;20.968;105.834;2024-03-06T06:29:17;79.70;;;46.30;;
22606;SDS011;11470;20.968;105.834;2024-03-06T06:34:22;68.88;;;41.63;;
22606;SDS011;11470;20.968;105.834;2024-03-06T06:39:31;74.40;;;44.60;;
22606;SDS011;11470;20.968;105.834;2024-03-06T06:44:37;57.80;;;31.27;;
22606;SDS011;11470;20.968;105.834;2024-03-06T06:49:43;51.90;;;32.83;;
22606;SDS011;11470;20.968;105.834;2024-03-06T06:54:49;41.00;;;24.98;;
22606;SDS011;11470;20.968;105.834;2024-03-06T06:59:54;62.65;;;32.53;;
22606;SDS011;11470;20.968;105.834;2024-03-06T07:04:59;67.97;;;44.45;;
22606;SDS011;11470;20.968;105.834;2024-03-06T07:10:04;49.75;;;28.65;;
22606;SDS011;11470;20.968;105.834;2024-03-06T07:15:09;70.85;;;42.17;;
22606;SDS011;11470;20.968;105.834;2024-03-06T07:20:15;55.45;;;34.28;;
22606;SDS011;11470;20.968;105.834;2024-03-06T07:25:20;66.90;;;40.40;;
22606;SDS011;11470;20.968;105.834;2024-03-06T07:30:26;50.80;;;33.15;;
22606;SDS011;11470;20.968;105.834;2024-03-06T07:35:33;64.60;;;40.38;;
22606;SDS011;11470;20.968;105.834;2024-03-06T07:40:41;50.45;;;32.22;;
22606;SDS011;11470;20.968;105.834;2024-03-06T07:45:46;56.42;;;35.55;;
22606;SDS011;11470;20.968;105.834;2024-03-06T07:50:52;59.05;;;36.42;;
22606;SDS011;11470;20.968;105.834;2024-03-06T07:55:57;48.10;;;28.43;;
22606;SDS011;11470;20.968;105.834;2024-03-06T08:01:03;61.22;;;38.15;;
22606;SDS011;11470;20.968;105.834;2024-03-06T08:06:09;64.20;;;37.53;;
22606;SDS011;11470;20.968;105.834;2024-03-06T08:11:14;54.47;;;34.97;;
22606;SDS011;11470;20.968;105.834;2024-03-06T08:16:19;56.33;;;36.77;;
22606;SDS011;11470;20.968;105.834;2024-03-06T08:21:24;53.63;;;34.53;;
22606;SDS011;11470;20.968;105.834;2024-03-06T08:26:29;62.53;;;37.27;;
22606;SDS011;11470;20.968;105.834;2024-03-06T08:31:35;60.38;;;38.95;;
22606;SDS011;11470;20.968;105.834;2024-03-06T08:36:40;64.43;;;36.47;;
22606;SDS011;11470;20.968;105.834;2024-03-06T08:41:45;62.03;;;38.37;;
22606;SDS011;11470;20.968;105.834;2024-03-06T08:46:50;59.47;;;37.60;;
22606;SDS011;11470;20.968;105.834;2024-03-06T08:51:55;67.10;;;38.75;;
22606;SDS011;11470;20.968;105.834;2024-03-06T08:57:00;58.97;;;38.43;;
22606;SDS011;11470;20.968;105.834;2024-03-06T09:02:13;58.72;;;33.95;;
22606;SDS011;11470;20.968;105.834;2024-03-06T09:07:19;57.17;;;37.58;;
22606;SDS011;11470;20.968;105.834;2024-03-06T09:12:31;64.82;;;37.42;;
22606;SDS011;11470;20.968;105.834;2024-03-06T09:17:37;62.20;;;36.20;;
22606;SDS011;11470;20.968;105.834;2024-03-06T09:22:42;61.85;;;37.55;;
22606;SDS011;11470;20.968;105.834;2024-03-06T09:27:48;63.42;;;38.63;;
22606;SDS011;11470;20.968;105.834;2024-03-06T09:32:53;58.97;;;36.30;;
22606;SDS011;11470;20.968;105.834;2024-03-06T09:37:58;63.87;;;41.10;;
22606;SDS011;11470;20.968;105.834;2024-03-06T09:43:04;64.82;;;37.50;;
22606;SDS011;11470;20.968;105.834;2024-03-06T09:48:11;62.65;;;37.60;;
22606;SDS011;11470;20.968;105.834;2024-03-06T09:58:22;67.68;;;38.90;;
22606;SDS011;11470;20.968;105.834;2024-03-06T10:03:28;64.68;;;38.55;;
22606;SDS011;11470;20.968;105.834;2024-03-06T10:08:33;58.13;;;37.47;;
22606;SDS011;11470;20.968;105.834;2024-03-06T10:13:38;73.40;;;41.23;;
22606;SDS011;11470;20.968;105.834;2024-03-06T10:18:43;58.38;;;37.95;;
22606;SDS011;11470;20.968;105.834;2024-03-06T10:23:48;73.50;;;42.73;;
22606;SDS011;11470;20.968;105.834;2024-03-06T10:28:53;75.35;;;47.10;;
22606;SDS011;11470;20.968;105.834;2024-03-06T10:33:59;80.18;;;46.90;;
22606;SDS011;11470;20.968;105.834;2024-03-06T10:39:04;89.63;;;49.23;;
22606;SDS011;11470;20.968;105.834;2024-03-06T10:44:12;84.38;;;49.13;;
22606;SDS011;11470;20.968;105.834;2024-03-06T10:49:18;90.15;;;55.33;;
22606;SDS011;11470;20.968;105.834;2024-03-06T10:54:26;90.80;;;52.03;;
22606;SDS011;11470;20.968;105.834;2024-03-06T10:59:35;82.65;;;50.28;;
22606;SDS011;11470;20.968;105.834;2024-03-06T11:04:41;83.97;;;49.65;;
22606;SDS011;11470;20.968;105.834;2024-03-06T11:14:55;83.97;;;51.30;;
22606;SDS011;11470;20.968;105.834;2024-03-06T11:36:22;108.25;;;64.50;;
22606;SDS011;11470;20.968;105.834;2024-03-06T11:46:43;90.80;;;56.35;;
22606;SDS011;11470;20.968;105.834;2024-03-06T11:51:50;75.60;;;48.22;;
22606;SDS011;11470;20.968;105.834;2024-03-06T11:56:57;68.63;;;43.70;;
22606;SDS011;11470;20.968;105.834;2024-03-06T12:02:04;95.15;;;57.35;;
22606;SDS011;11470;20.968;105.834;2024-03-06T12:07:11;113.25;;;70.60;;
22606;SDS011;11470;20.968;105.834;2024-03-06T12:12:16;76.43;;;46.17;;
22606;SDS011;11470;20.968;105.834;2024-03-06T12:17:21;66.85;;;42.53;;
22606;SDS011;11470;20.968;105.834;2024-03-06T12:22:29;130.05;;;73.25;;
22606;SDS011;11470;20.968;105.834;2024-03-06T12:27:35;70.95;;;39.80;;
22606;SDS011;11470;20.968;105.834;2024-03-06T12:32:40;66.30;;;34.30;;
22606;SDS011;11470;20.968;105.834;2024-03-06T12:37:46;119.80;;;63.55;;
22606;SDS011;11470;20.968;105.834;2024-03-06T12:42:53;116.97;;;67.53;;
22606;SDS011;11470;20.968;105.834;2024-03-06T12:47:59;82.68;;;35.60;;
22606;SDS011;11470;20.968;105.834;2024-03-06T12:53:05;131.18;;;67.63;;
22606;SDS011;11470;20.968;105.834;2024-03-06T12:58:10;79.77;;;34.33;;
22606;SDS011;11470;20.968;105.834;2024-03-06T13:03:19;91.22;;;39.97;;
22606;SDS011;11470;20.968;105.834;2024-03-06T13:08:25;121.68;;;59.78;;
22606;SDS011;11470;20.968;105.834;2024-03-06T13:13:31;132.80;;;70.30;;
22606;SDS011;11470;20.968;105.834;2024-03-06T13:18:37;80.88;;;32.78;;
22606;SDS011;11470;20.968;105.834;2024-03-06T13:23:42;106.03;;;49.10;;
22606;SDS011;11470;20.968;105.834;2024-03-06T13:28:49;122.00;;;66.87;;
22606;SDS011;11470;20.968;105.834;2024-03-06T13:33:55;81.78;;;34.08;;
22606;SDS011;11470;20.968;105.834;2024-03-06T13:39:01;102.78;;;53.03;;
22606;SDS011;11470;20.968;105.834;2024-03-06T13:44:09;60.00;;;28.92;;
22606;SDS011;11470;20.968;105.834;2024-03-06T13:54:43;72.25;;;34.10;;
22606;SDS011;11470;20.968;105.834;2024-03-06T13:59:49;66.47;;;33.70;;
22606;SDS011;11470;20.968;105.834;2024-03-06T14:04:54;58.47;;;25.73;;
22606;SDS011;11470;20.968;105.834;2024-03-06T14:09:59;71.90;;;28.87;;
22606;SDS011;11470;20.968;105.834;2024-03-06T14:15:08;71.07;;;36.05;;
22606;SDS011;11470;20.968;105.834;2024-03-06T14:20:16;75.10;;;39.28;;
22606;SDS011;11470;20.968;105.834;2024-03-06T14:25:21;72.03;;;38.67;;
22606;SDS011;11470;20.968;105.834;2024-03-06T14:30:26;66.97;;;37.15;;
22606;SDS011;11470;20.968;105.834;2024-03-06T14:35:31;74.95;;;41.05;;
22606;SDS011;11470;20.968;105.834;2024-03-06T14:40:37;75.37;;;41.20;;
22606;SDS011;11470;20.968;105.834;2024-03-06T14:45:45;73.57;;;41.53;;
22606;SDS011;11470;20.968;105.834;2024-03-06T14:50:50;71.93;;;41.13;;
22606;SDS011;11470;20.968;105.834;2024-03-06T14:55:56;68.73;;;39.90;;
22606;SDS011;11470;20.968;105.834;2024-03-06T15:01:04;69.82;;;39.13;;
22606;SDS011;11470;20.968;105.834;2024-03-06T15:06:12;64.53;;;34.37;;
22606;SDS011;11470;20.968;105.834;2024-03-06T15:11:18;58.22;;;32.25;;
22606;SDS011;11470;20.968;105.834;2024-03-06T15:16:26;41.63;;;21.65;;
22606;SDS011;11470;20.968;105.834;2024-03-06T15:21:32;67.97;;;34.00;;
22606;SDS011;11470;20.968;105.834;2024-03-06T15:26:37;62.63;;;33.93;;
22606;SDS011;11470;20.968;105.834;2024-03-06T15:36:48;60.60;;;28.65;;
22606;SDS011;11470;20.968;105.834;2024-03-06T15:41:57;54.15;;;27.48;;
22606;SDS011;11470;20.968;105.834;2024-03-06T15:47:02;57.33;;;30.43;;
22606;SDS011;11470;20.968;105.834;2024-03-06T15:52:14;50.92;;;25.20;;
22606;SDS011;11470;20.968;105.834;2024-03-06T15:57:19;49.90;;;26.13;;
22606;SDS011;11470;20.968;105.834;2024-03-06T16:02:25;38.17;;;18.85;;
22606;SDS011;11470;20.968;105.834;2024-03-06T16:07:30;34.20;;;18.50;;
22606;SDS011;11470;20.968;105.834;2024-03-06T16:12:41;58.97;;;33.75;;
22606;SDS011;11470;20.968;105.834;2024-03-06T16:17:46;56.30;;;33.00;;
22606;SDS011;11470;20.968;105.834;2024-03-06T16:22:52;58.80;;;34.38;;
22606;SDS011;11470;20.968;105.834;2024-03-06T16:27:57;66.63;;;37.63;;
22606;SDS011;11470;20.968;105.834;2024-03-06T16:33:05;61.67;;;34.35;;
22606;SDS011;11470;20.968;105.834;2024-03-06T16:38:10;64.07;;;37.15;;
22606;SDS011;11470;20.968;105.834;2024-03-06T16:43:15;60.57;;;35.17;;
22606;SDS011;11470;20.968;105.834;2024-03-06T16:48:20;62.17;;;34.83;;
22606;SDS011;11470;20.968;105.834;2024-03-06T16:53:26;59.10;;;32.10;;
22606;SDS011;11470;20.968;105.834;2024-03-06T16:58:32;59.55;;;31.08;;
22606;SDS011;11470;20.968;105.834;2024-03-06T17:03:38;58.67;;;32.60;;
22606;SDS011;11470;20.968;105.834;2024-03-06T17:08:43;60.35;;;34.90;;
22606;SDS011;11470;20.968;105.834;2024-03-06T17:13:49;54.20;;;33.00;;
22606;SDS011;11470;20.968;105.834;2024-03-06T17:18:54;57.97;;;34.30;;
22606;SDS011;11470;20.968;105.834;2024-03-06T17:23:59;52.33;;;30.77;;
22606;SDS011;11470;20.968;105.834;2024-03-06T17:29:04;58.80;;;32.37;;
22606;SDS011;11470;20.968;105.834;2024-03-06T17:34:11;52.22;;;29.90;;
22606;SDS011;11470;20.968;105.834;2024-03-06T17:39:16;50.63;;;29.67;;
22606;SDS011;11470;20.968;105.834;2024-03-06T17:44:24;46.33;;;27.63;;
22606;SDS011;11470;20.968;105.834;2024-03-06T17:49:31;65.13;;;33.08;;
22606;SDS011;11470;20.968;105.834;2024-03-06T17:54:36;53.35;;;31.50;;
22606;SDS011;11470;20.968;105.834;2024-03-06T17:59:41;60.67;;;31.90;;
22606;SDS011;11470;20.968;105.834;2024-03-06T18:04:46;54.80;;;31.30;;
22606;SDS011;11470;20.968;105.834;2024-03-06T18:09:51;64.18;;;31.63;;
22606;SDS011;11470;20.968;105.834;2024-03-06T18:14:57;48.10;;;27.98;;
22606;SDS011;11470;20.968;105.834;2024-03-06T18:20:03;52.30;;;31.73;;
22606;SDS011;11470;20.968;105.834;2024-03-06T18:25:10;58.10;;;33.55;;
22606;SDS011;11470;20.968;105.834;2024-03-06T18:30:15;51.95;;;30.23;;
22606;SDS011;11470;20.968;105.834;2024-03-06T18:35:21;54.75;;;29.30;;
22606;SDS011;11470;20.968;105.834;2024-03-06T18:40:25;53.67;;;30.67;;
22606;SDS011;11470;20.968;105.834;2024-03-06T18:45:30;50.83;;;29.15;;
22606;SDS011;11470;20.968;105.834;2024-03-06T18:50:35;50.00;;;26.90;;
22606;SDS011;11470;20.968;105.834;2024-03-06T18:55:40;53.15;;;29.08;;
22606;SDS011;11470;20.968;105.834;2024-03-06T19:00:45;49.67;;;26.90;;
22606;SDS011;11470;20.968;105.834;2024-03-06T19:05:50;50.95;;;27.02;;
22606;SDS011;11470;20.968;105.834;2024-03-06T19:10:56;50.28;;;27.70;;
22606;SDS011;11470;20.968;105.834;2024-03-06T19:21:07;58.45;;;32.15;;
22606;SDS011;11470;20.968;105.834;2024-03-06T19:26:12;57.10;;;31.38;;
22606;SDS011;11470;20.968;105.834;2024-03-06T19:31:17;52.20;;;29.50;;
22606;SDS011;11470;20.968;105.834;2024-03-06T19:36:22;60.22;;;32.83;;
22606;SDS011;11470;20.968;105.834;2024-03-06T19:41:27;51.70;;;29.92;;
22606;SDS011;11470;20.968;105.834;2024-03-06T19:46:32;53.50;;;31.03;;
22606;SDS011;11470;20.968;105.834;2024-03-06T19:51:40;59.40;;;32.43;;
22606;SDS011;11470;20.968;105.834;2024-03-06T19:56:49;59.42;;;29.85;;
22606;SDS011;11470;20.968;105.834;2024-03-06T20:01:55;55.95;;;31.50;;
22606;SDS011;11470;20.968;105.834;2024-03-06T20:07:00;56.85;;;31.98;;
22606;SDS011;11470;20.968;105.834;2024-03-06T20:12:05;56.38;;;31.65;;
22606;SDS011;11470;20.968;105.834;2024-03-06T20:17:10;60.63;;;33.77;;
22606;SDS011;11470;20.968;105.834;2024-03-06T20:22:16;52.15;;;30.38;;
22606;SDS011;11470;20.968;105.834;2024-03-06T20:27:22;59.87;;;31.80;;
22606;SDS011;11470;20.968;105.834;2024-03-06T20:32:29;65.10;;;33.35;;
22606;SDS011;11470;20.968;105.834;2024-03-06T20:37:34;51.57;;;29.93;;
22606;SDS011;11470;20.968;105.834;2024-03-06T20:42:39;63.17;;;32.72;;
22606;SDS011;11470;20.968;105.834;2024-03-06T20:47:44;70.50;;;35.13;;
22606;SDS011;11470;20.968;105.834;2024-03-06T20:52:50;62.65;;;30.38;;
22606;SDS011;11470;20.968;105.834;2024-03-06T20:57:55;61.35;;;32.60;;
22606;SDS011;11470;20.968;105.834;2024-03-06T21:03:00;66.53;;;35.20;;
22606;SDS011;11470;20.968;105.834;2024-03-06T21:08:05;67.95;;;33.88;;
22606;SDS011;11470;20.968;105.834;2024-03-06T21:13:13;71.47;;;35.97;;
22606;SDS011;11470;20.968;105.834;2024-03-06T21:18:18;65.80;;;34.60;;
22606;SDS011;11470;20.968;105.834;2024-03-06T21:23:25;72.05;;;37.03;;
22606;SDS011;11470;20.968;105.834;2024-03-06T21:28:30;77.33;;;37.37;;
22606;SDS011;11470;20.968;105.834;2024-03-06T21:33:35;69.43;;;37.63;;
22606;SDS011;11470;20.968;105.834;2024-03-06T21:38:42;59.97;;;32.05;;
22606;SDS011;11470;20.968;105.834;2024-03-06T21:43:47;65.10;;;34.90;;
22606;SDS011;11470;20.968;105.834;2024-03-06T21:48:52;59.85;;;34.33;;
22606;SDS011;11470;20.968;105.834;2024-03-06T21:53:57;60.95;;;35.67;;
22606;SDS011;11470;20.968;105.834;2024-03-06T21:59:03;61.22;;;34.72;;
22606;SDS011;11470;20.968;105.834;2024-03-06T22:04:09;67.53;;;35.50;;
22606;SDS011;11470;20.968;105.834;2024-03-06T22:09:17;60.30;;;35.45;;
22606;SDS011;11470;20.968;105.834;2024-03-06T22:14:22;60.47;;;34.67;;
22606;SDS011;11470;20.968;105.834;2024-03-06T22:19:27;66.50;;;37.03;;
22606;SDS011;11470;20.968;105.834;2024-03-06T22:24:32;64.10;;;34.20;;
22606;SDS011;11470;20.968;105.834;2024-03-06T22:29:37;73.23;;;37.70;;
22606;SDS011;11470;20.968;105.834;2024-03-06T22:34:42;64.70;;;35.97;;
22606;SDS011;11470;20.968;105.834;2024-03-06T22:39:47;76.78;;;38.05;;
22606;SDS011;11470;20.968;105.834;2024-03-06T22:44:52;71.78;;;39.15;;
22606;SDS011;11470;20.968;105.834;2024-03-06T22:49:57;69.97;;;39.47;;
22606;SDS011;11470;20.968;105.834;2024-03-06T22:55:02;63.10;;;36.42;;
22606;SDS011;11470;20.968;105.834;2024-03-06T23:00:09;74.40;;;40.78;;
22606;SDS011;11470;20.968;105.834;2024-03-06T23:05:32;68.90;;;38.65;;
22606;SDS011;11470;20.968;105.834;2024-03-06T23:10:38;77.63;;;43.60;;
22606;SDS011;11470;20.968;105.834;2024-03-06T23:20:48;65.95;;;38.17;;
22606;SDS011;11470;20.968;105.834;2024-03-06T23:25:53;61.42;;;36.33;;
22606;SDS011;11470;20.968;105.834;2024-03-06T23:30:58;53.50;;;31.77;;
22606;SDS011;11470;20.968;105.834;2024-03-06T23:36:04;49.40;;;32.28;;
22606;SDS011;11470;20.968;105.834;2024-03-06T23:41:09;50.88;;;30.23;;
22606;SDS011;11470;20.968;105.834;2024-03-06T23:46:16;56.30;;;33.50;;
22606;SDS011;11470;20.968;105.834;2024-03-06T23:51:21;57.30;;;34.13;;
22606;SDS011;11470;20.968;105.834;2024-03-06T23:56:27;50.45;;;30.00;;
